Time;durP1;ratioP1;P1;durP2;ratioP2;P2;SDS_P1;SDS_P2;PMS_P1;PMS_P2;Temp;Humidity;BMP_temperature;BMP_pressure;BME280_temperature;BME280_humidity;BME280_pressure;Samples;Min_cycle;Max_cycle;Signal;HPM_P1;HPM_P2
2023/01/03 00:00:31;;;;;;;7.55;3.22;;;;;;;;;;5026498;28;20029;-84
2023/01/03 00:02:57;;;;;;;7.53;3.80;;;;;;;;;;5046567;28;20462;-84
2023/01/03 00:05:22;;;;;;;9.95;4.10;;;;;;;;;;5046278;28;20068;-85
2023/01/03 00:07:48;;;;;;;6.93;3.10;;;;;;;;;;5044375;28;20498;-84
2023/01/03 00:10:13;;;;;;;8.20;2.88;;;;;;;;;;5044316;28;20028;-84
2023/01/03 00:12:39;;;;;;;6.85;1.85;;;;;;;;;;5028859;28;20040;-84
2023/01/03 00:15:04;;;;;;;6.20;1.98;;;;;;;;;;5044459;28;20017;-84
2023/01/03 00:17:30;;;;;;;6.13;1.90;;;;;;;;;;5026517;28;20033;-85
2023/01/03 00:19:55;;;;;;;5.53;1.70;;;;;;;;;;5042719;28;20030;-83
2023/01/03 00:22:21;;;;;;;7.35;1.48;;;;;;;;;;5023487;28;20037;-83
2023/01/03 00:24:48;;;;;;;5.97;1.45;;;;;;;;;;5041060;28;20029;-82
2023/01/03 00:27:14;;;;;;;6.78;1.48;;;;;;;;;;5023747;28;20044;-85
2023/01/03 00:29:41;;;;;;;6.38;1.75;;;;;;;;;;5043212;28;20037;-83
2023/01/03 00:32:07;;;;;;;5.40;1.58;;;;;;;;;;5042730;28;20063;-85
2023/01/03 00:34:34;;;;;;;4.38;1.70;;;;;;;;;;5042139;28;20041;-83
2023/01/03 00:36:59;;;;;;;3.85;1.30;;;;;;;;;;5043566;28;20029;-85
2023/01/03 00:39:25;;;;;;;8.25;1.85;;;;;;;;;;5041705;28;20532;-85
2023/01/03 00:41:51;;;;;;;5.68;1.60;;;;;;;;;;5042001;28;20033;-85
2023/01/03 00:44:16;;;;;;;4.30;1.60;;;;;;;;;;5041998;28;20129;-84
2023/01/03 00:46:42;;;;;;;4.60;1.50;;;;;;;;;;5046269;28;20494;-84
2023/01/03 00:49:08;;;;;;;5.47;1.40;;;;;;;;;;5029091;28;20409;-85
2023/01/03 00:51:37;;;;;;;4.30;1.52;;;;;;;;;;5046121;28;20048;-84
2023/01/03 00:54:04;;;;;;;4.50;1.58;;;;;;;;;;5026983;28;20037;-84
2023/01/03 00:56:33;;;;;;;3.95;1.48;;;;;;;;;;5044651;28;20393;-85
2023/01/03 00:58:58;;;;;;;10.75;1.70;;;;;;;;;;5027559;28;20061;-83
2023/01/03 01:01:27;;;;;;;5.57;1.42;;;;;;;;;;5046088;28;20045;-84
2023/01/03 01:03:58;;;;;;;5.38;1.55;;;;;;;;;;5043262;28;20104;-83
2023/01/03 01:06:29;;;;;;;5.32;1.75;;;;;;;;;;5027768;28;20041;-86
2023/01/03 01:08:57;;;;;;;5.82;2.30;;;;;;;;;;5028659;28;20108;-83
2023/01/03 01:11:23;;;;;;;3.15;1.45;;;;;;;;;;5045377;28;20064;-84
2023/01/03 01:13:49;;;;;;;4.93;1.60;;;;;;;;;;5028565;28;20045;-86
2023/01/03 01:16:21;;;;;;;4.60;1.60;;;;;;;;;;5044389;28;20033;-84
2023/01/03 01:18:52;;;;;;;5.57;1.60;;;;;;;;;;5045747;28;20059;-84
2023/01/03 01:21:36;;;;;;;3.75;1.63;;;;;;;;;;5046960;28;20033;-83
2023/01/03 01:24:01;;;;;;;6.50;1.60;;;;;;;;;;5027257;28;20036;-84
2023/01/03 01:26:27;;;;;;;6.68;1.60;;;;;;;;;;5044104;28;20037;-84
2023/01/03 01:28:53;;;;;;;5.00;1.48;;;;;;;;;;5045185;28;20033;-85
2023/01/03 01:31:21;;;;;;;6.68;1.70;;;;;;;;;;5046905;28;20097;-85
2023/01/03 01:33:47;;;;;;;10.15;1.77;;;;;;;;;;5045827;28;20402;-85
2023/01/03 01:36:25;;;;;;;5.00;1.60;;;;;;;;;;5044989;28;20017;-85
2023/01/03 01:38:54;;;;;;;10.43;1.75;;;;;;;;;;5046786;28;20049;-85
2023/01/03 01:44:36;;;;;;;4.60;1.88;;;;;;;;;;5046107;28;20218;-86
2023/01/03 01:46:49;;;;;;;8.75;1.90;;;;;;;;;;5045825;28;20072;-86
2023/01/03 01:49:23;;;;;;;6.05;1.92;;;;;;;;;;5044892;28;20028;-86
2023/01/03 01:51:49;;;;;;;10.38;4.60;;;;;;;;;;5047640;28;20068;-86
2023/01/03 01:54:15;;;;;;;6.47;2.30;;;;;;;;;;5046728;28;20038;-85
2023/01/03 01:56:52;;;;;;;5.97;1.90;;;;;;;;;;5044301;28;20032;-84
2023/01/03 01:59:17;;;;;;;4.15;1.70;;;;;;;;;;5048895;28;20056;-85
2023/01/03 02:01:46;;;;;;;8.07;1.90;;;;;;;;;;5045949;28;20045;-85
2023/01/03 02:04:21;;;;;;;3.78;1.30;;;;;;;;;;5029706;28;20044;-84
2023/01/03 02:06:46;;;;;;;4.82;1.88;;;;;;;;;;5044614;28;20067;-84
2023/01/03 02:09:12;;;;;;;5.95;1.92;;;;;;;;;;5044870;28;20101;-84
2023/01/03 02:11:44;;;;;;;6.28;1.80;;;;;;;;;;5045266;28;20033;-86
2023/01/03 02:14:15;;;;;;;6.50;1.73;;;;;;;;;;5046247;28;20266;-85
2023/01/03 02:17:09;;;;;;;7.32;1.60;;;;;;;;;;5046238;28;20033;-84
2023/01/03 02:19:38;;;;;;;;;;;;;;;;;;5020717;28;20099;-85
2023/01/03 02:22:25;;;;;;;5.93;2.80;;;;;;;;;;5046217;28;19995;-85
2023/01/03 02:25:27;;;;;;;5.18;1.60;;;;;;;;;;5028213;28;20052;-85
2023/01/03 02:27:52;;;;;;;2.63;1.40;;;;;;;;;;5044706;28;20105;-85
2023/01/03 02:30:42;;;;;;;4.05;1.30;;;;;;;;;;5046562;28;20030;-84
2023/01/03 02:33:16;;;;;;;6.15;1.85;;;;;;;;;;5046088;28;20033;-85
2023/01/03 02:35:59;;;;;;;4.88;1.50;;;;;;;;;;5044798;28;20033;-84
2023/01/03 02:38:40;;;;;;;9.07;1.70;;;;;;;;;;5045022;28;20041;-83
2023/01/03 02:41:08;;;;;;;5.32;1.67;;;;;;;;;;5047098;28;20048;-85
2023/01/03 02:43:48;;;;;;;7.75;1.65;;;;;;;;;;5046090;28;20520;-85
2023/01/03 02:46:23;;;;;;;3.67;1.50;;;;;;;;;;5043522;28;20048;-84
2023/01/03 02:48:57;;;;;;;5.07;1.63;;;;;;;;;;5043645;28;20120;-83
2023/01/03 02:51:26;;;;;;;6.07;1.45;;;;;;;;;;5045137;28;20064;-84
2023/01/03 02:53:52;;;;;;;5.93;1.40;;;;;;;;;;5045205;28;20045;-84
2023/01/03 02:56:27;;;;;;;5.57;1.45;;;;;;;;;;5042127;28;20025;-85
2023/01/03 02:58:57;;;;;;;9.07;1.73;;;;;;;;;;5045021;28;20536;-84
2023/01/03 03:01:24;;;;;;;5.28;1.65;;;;;;;;;;5043357;28;20059;-85
2023/01/03 03:03:51;;;;;;;3.45;1.40;;;;;;;;;;5045464;28;20051;-84
2023/01/03 03:06:42;;;;;;;3.40;1.77;;;;;;;;;;5043702;28;20033;-84
2023/01/03 03:09:07;;;;;;;4.43;1.90;;;;;;;;;;5042762;28;20640;-84
2023/01/03 03:14:48;;;;;;;3.80;1.48;;;;;;;;;;5044848;28;20045;-85
2023/01/03 03:17:26;;;;;;;3.45;1.60;;;;;;;;;;5043662;28;20061;-84
2023/01/03 03:25:42;;;;;;;9.25;2.08;;;;;;;;;;5041541;28;20110;-84
2023/01/03 03:30:59;;;;;;;4.25;1.95;;;;;;;;;;5042350;28;20030;-83
2023/01/03 03:33:27;;;;;;;3.90;1.90;;;;;;;;;;5042236;28;20025;-84
2023/01/03 03:35:59;;;;;;;7.57;1.80;;;;;;;;;;5040812;28;20060;-85
2023/01/03 03:38:34;;;;;;;4.63;2.03;;;;;;;;;;5041443;28;20033;-84
2023/01/03 03:47:25;;;;;;;7.45;2.20;;;;;;;;;;5041526;28;20049;-84
2023/01/03 03:49:53;;;;;;;4.22;1.90;;;;;;;;;;5044208;28;20489;-83
2023/01/03 03:52:24;;;;;;;4.70;1.90;;;;;;;;;;5041543;28;20547;-84
2023/01/03 03:54:55;;;;;;;4.57;1.52;;;;;;;;;;5042498;28;20089;-84
2023/01/03 03:57:35;;;;;;;4.93;2.00;;;;;;;;;;5043113;28;20116;-83
2023/01/03 04:00:06;;;;;;;7.88;2.35;;;;;;;;;;5042151;28;20041;-83
2023/01/03 04:02:39;;;;;;;6.57;2.25;;;;;;;;;;5043119;28;20121;-84
2023/01/03 04:05:08;;;;;;;5.63;1.85;;;;;;;;;;5043985;28;20041;-83
2023/01/03 04:07:33;;;;;;;5.05;1.90;;;;;;;;;;5043133;28;20045;-84
2023/01/03 04:09:59;;;;;;;8.93;2.00;;;;;;;;;;5041749;28;20030;-83
2023/01/03 04:12:25;;;;;;;5.18;2.10;;;;;;;;;;5042362;28;20033;-82
2023/01/03 04:14:50;;;;;;;7.47;2.25;;;;;;;;;;5042042;28;20397;-84
2023/01/03 04:17:16;;;;;;;5.82;2.53;;;;;;;;;;5041603;28;20032;-83
2023/01/03 04:19:42;;;;;;;3.90;2.17;;;;;;;;;;5042753;28;20115;-86
2023/01/03 04:22:08;;;;;;;4.10;2.15;;;;;;;;;;5025005;28;20502;-86
2023/01/03 04:24:33;;;;;;;5.50;2.30;;;;;;;;;;5043330;28;20040;-84
2023/01/03 04:26:59;;;;;;;5.75;2.38;;;;;;;;;;5040930;28;20078;-84
2023/01/03 04:29:24;;;;;;;6.45;2.38;;;;;;;;;;5041450;28;20038;-83
2023/01/03 04:31:50;;;;;;;4.53;2.33;;;;;;;;;;5044523;28;20041;-85
2023/01/03 04:34:15;;;;;;;5.35;2.30;;;;;;;;;;5041037;28;20042;-83
2023/01/03 04:36:41;;;;;;;5.93;2.58;;;;;;;;;;5043446;28;20469;-85
2023/01/03 04:39:06;;;;;;;8.27;2.60;;;;;;;;;;5042143;28;20041;-85
2023/01/03 04:41:32;;;;;;;5.47;2.53;;;;;;;;;;5025802;28;20033;-85
2023/01/03 04:44:00;;;;;;;10.85;3.10;;;;;;;;;;5042868;28;20033;-82
2023/01/03 04:46:30;;;;;;;4.93;2.53;;;;;;;;;;5025433;28;20040;-83
2023/01/03 04:48:56;;;;;;;7.65;3.05;;;;;;;;;;5043049;28;20064;-84
2023/01/03 04:51:22;;;;;;;6.03;2.47;;;;;;;;;;5043656;28;20038;-84
2023/01/03 04:53:48;;;;;;;6.38;2.60;;;;;;;;;;5042076;28;20037;-84
2023/01/03 04:56:13;;;;;;;6.28;2.45;;;;;;;;;;5042753;28;20057;-85
2023/01/03 04:58:38;;;;;;;4.60;2.63;;;;;;;;;;5026548;28;20040;-85
2023/01/03 05:01:06;;;;;;;10.65;2.95;;;;;;;;;;5042051;28;20116;-85
2023/01/03 05:03:32;;;;;;;7.53;3.00;;;;;;;;;;5042718;28;20085;-83
2023/01/03 05:06:03;;;;;;;8.57;2.70;;;;;;;;;;5022119;28;20056;-84
2023/01/03 05:08:29;;;;;;;8.05;2.65;;;;;;;;;;5040148;28;20041;-83
2023/01/03 05:10:55;;;;;;;6.53;2.53;;;;;;;;;;5042847;28;20209;-81
2023/01/03 05:13:21;;;;;;;7.30;2.50;;;;;;;;;;5039364;28;20045;-85
2023/01/03 05:15:46;;;;;;;7.10;2.58;;;;;;;;;;5038150;28;20165;-84
2023/01/03 05:18:12;;;;;;;6.90;2.50;;;;;;;;;;5007163;28;20093;-85
2023/01/03 05:26:16;;;;;;;5.70;3.58;;;;;;;;;;5019195;28;20578;-85
2023/01/03 05:28:44;;;;;;;10.13;3.38;;;;;;;;;;5020960;28;20041;-84
2023/01/03 05:31:10;;;;;;;4.82;3.50;;;;;;;;;;5017830;28;20039;-84
2023/01/03 05:33:39;;;;;;;7.80;3.28;;;;;;;;;;5006180;28;20040;-84
2023/01/03 05:36:06;;;;;;;15.18;2.83;;;;;;;;;;5022355;28;20506;-84
2023/01/03 05:38:32;;;;;;;8.95;3.10;;;;;;;;;;5023602;28;20089;-84
2023/01/03 05:40:58;;;;;;;10.93;2.78;;;;;;;;;;5026636;28;20064;-85
2023/01/03 05:43:23;;;;;;;5.95;2.55;;;;;;;;;;5023421;28;20084;-83
2023/01/03 05:45:51;;;;;;;6.22;2.50;;;;;;;;;;5022543;28;20073;-83
2023/01/03 05:48:17;;;;;;;9.68;4.85;;;;;;;;;;5023498;28;20076;-84
2023/01/03 05:50:42;;;;;;;10.70;6.53;;;;;;;;;;5025430;28;20042;-84
2023/01/03 05:53:08;;;;;;;9.65;5.90;;;;;;;;;;5023155;28;20112;-83
2023/01/03 05:55:37;;;;;;;13.05;5.82;;;;;;;;;;5007356;28;20037;-84
2023/01/03 05:58:04;;;;;;;7.18;5.07;;;;;;;;;;5024693;28;20030;-85
2023/01/03 06:00:29;;;;;;;6.72;4.07;;;;;;;;;;5023480;28;20038;-85
2023/01/03 06:02:55;;;;;;;6.43;3.38;;;;;;;;;;5025079;28;20044;-84
2023/01/03 06:05:21;;;;;;;5.78;2.70;;;;;;;;;;5023228;28;20034;-84
2023/01/03 06:07:47;;;;;;;7.47;3.15;;;;;;;;;;5005890;28;20042;-83
2023/01/03 06:10:13;;;;;;;6.85;3.20;;;;;;;;;;5024348;28;20034;-85
2023/01/03 06:12:38;;;;;;;5.82;2.90;;;;;;;;;;5025052;28;20022;-84
2023/01/03 06:15:05;;;;;;;7.97;2.88;;;;;;;;;;5024046;28;20030;-84
2023/01/03 06:20:14;;;;;;;11.15;3.70;;;;;;;;;;5023487;28;20065;-83
2023/01/03 06:22:40;;;;;;;8.68;4.00;;;;;;;;;;5023262;28;20049;-84
2023/01/03 06:25:06;;;;;;;10.73;4.05;;;;;;;;;;5022391;28;20038;-84
2023/01/03 06:27:32;;;;;;;5.25;3.05;;;;;;;;;;5024921;28;20036;-83
2023/01/03 06:29:58;;;;;;;8.02;3.10;;;;;;;;;;5007212;28;20065;-84
2023/01/03 06:32:24;;;;;;;6.32;2.63;;;;;;;;;;5023210;28;20044;-84
2023/01/03 06:34:49;;;;;;;5.25;2.80;;;;;;;;;;5025589;28;20061;-84
2023/01/03 06:37:15;;;;;;;5.93;2.65;;;;;;;;;;5008075;28;20132;-84
2023/01/03 06:39:40;;;;;;;5.60;2.80;;;;;;;;;;5024148;28;20033;-84
2023/01/03 06:53:11;;;;;;;4.75;2.25;;;;;;;;;;5025555;28;20038;-84
2023/01/03 06:55:36;;;;;;;3.67;2.10;;;;;;;;;;5024543;28;20029;-84
2023/01/03 06:58:01;;;;;;;5.07;2.63;;;;;;;;;;5026226;28;20395;-85
2023/01/03 07:00:27;;;;;;;4.13;2.15;;;;;;;;;;5028488;28;20093;-86
2023/01/03 07:02:53;;;;;;;3.88;1.92;;;;;;;;;;5025251;28;20453;-85
2023/01/03 07:05:18;;;;;;;5.50;2.35;;;;;;;;;;5007850;28;20467;-85
2023/01/03 07:07:44;;;;;;;3.97;2.10;;;;;;;;;;5024493;28;20070;-84
2023/01/03 07:10:09;;;;;;;4.75;1.98;;;;;;;;;;5024708;28;20042;-84
2023/01/03 07:15:19;;;;;;;4.82;1.63;;;;;;;;;;5024281;28;20397;-84
2023/01/03 07:17:45;;;;;;;3.38;1.60;;;;;;;;;;5038984;28;20116;-85
2023/01/03 07:20:10;;;;;;;5.30;1.65;;;;;;;;;;5042191;28;20094;-84
2023/01/03 07:22:36;;;;;;;3.28;1.67;;;;;;;;;;5023908;28;20040;-85
2023/01/03 07:25:01;;;;;;;4.80;1.60;;;;;;;;;;5040693;28;20060;-85
2023/01/03 07:27:27;;;;;;;4.97;1.55;;;;;;;;;;5043346;28;20041;-83
2023/01/03 07:29:52;;;;;;;3.20;1.75;;;;;;;;;;5041338;28;20517;-83
2023/01/03 07:32:18;;;;;;;4.30;2.20;;;;;;;;;;5037760;28;20037;-84
2023/01/03 07:34:43;;;;;;;10.98;4.47;;;;;;;;;;5037214;28;20071;-84
2023/01/03 07:37:09;;;;;;;5.47;3.38;;;;;;;;;;5037092;28;20091;-83
2023/01/03 07:39:34;;;;;;;5.75;3.00;;;;;;;;;;5030491;28;20033;-84
2023/01/03 07:44:44;;;;;;;6.15;3.42;;;;;;;;;;5014480;28;20510;-84
2023/01/03 07:47:09;;;;;;;7.47;3.60;;;;;;;;;;5017013;28;20034;-84
2023/01/03 07:49:34;;;;;;;4.78;2.80;;;;;;;;;;5017672;28;20482;-83
2023/01/03 07:52:00;;;;;;;6.65;2.30;;;;;;;;;;5027077;28;20111;-83
2023/01/03 07:54:25;;;;;;;4.93;2.10;;;;;;;;;;5024249;28;20041;-83
2023/01/03 07:56:51;;;;;;;4.25;2.28;;;;;;;;;;5025282;28;20024;-83
2023/01/03 07:59:16;;;;;;;3.35;2.10;;;;;;;;;;5033288;28;20444;-85
2023/01/03 08:01:42;;;;;;;4.53;2.42;;;;;;;;;;5009534;28;20040;-83
2023/01/03 08:04:07;;;;;;;3.22;1.90;;;;;;;;;;5025364;28;20109;-83
2023/01/03 08:06:33;;;;;;;3.75;2.00;;;;;;;;;;5027808;28;20053;-84
2023/01/03 08:14:26;;;;;;;;;;;;;;;;;;5040658;28;20033;-84
2023/01/03 08:16:51;;;;;;;2.15;1.50;;;;;;;;;;5039300;28;19913;-84
2023/01/03 08:19:17;;;;;;;4.10;1.70;;;;;;;;;;5037599;28;20485;-84
2023/01/03 08:21:42;;;;;;;2.72;1.75;;;;;;;;;;5038613;28;20029;-83
2023/01/03 08:24:08;;;;;;;2.95;1.60;;;;;;;;;;5035822;28;20036;-85
2023/01/03 08:26:33;;;;;;;3.28;1.70;;;;;;;;;;5041487;28;20033;-85
2023/01/03 08:28:59;;;;;;;3.25;1.70;;;;;;;;;;5038444;28;20033;-85
2023/01/03 08:31:26;;;;;;;3.38;1.75;;;;;;;;;;5036962;28;20057;-84
2023/01/03 08:34:00;;;;;;;3.13;1.77;;;;;;;;;;5037842;28;20715;-84
2023/01/03 08:36:30;;;;;;;3.92;1.73;;;;;;;;;;5039316;28;20037;-84
2023/01/03 08:39:05;;;;;;;4.15;1.83;;;;;;;;;;5040529;28;20105;-85
2023/01/03 08:41:34;;;;;;;2.63;1.67;;;;;;;;;;5038971;28;20059;-84
2023/01/03 08:44:01;;;;;;;3.72;1.90;;;;;;;;;;5038764;28;20029;-82
2023/01/03 08:46:28;;;;;;;5.22;2.30;;;;;;;;;;5026081;28;20034;-84
2023/01/03 08:48:54;;;;;;;4.90;3.47;;;;;;;;;;5002754;28;20034;-85
2023/01/03 08:51:20;;;;;;;9.10;3.30;;;;;;;;;;5019161;28;20162;-82
2023/01/03 08:53:45;;;;;;;6.60;2.50;;;;;;;;;;5022283;28;20062;-83
2023/01/03 08:56:11;;;;;;;5.22;2.90;;;;;;;;;;5022399;28;20038;-84
2023/01/03 08:58:36;;;;;;;6.43;3.70;;;;;;;;;;5023187;28;20034;-84
2023/01/03 09:01:04;;;;;;;6.28;3.88;;;;;;;;;;5006211;28;20033;-84
2023/01/03 09:03:30;;;;;;;6.53;3.55;;;;;;;;;;5022356;28;20075;-84
2023/01/03 09:06:00;;;;;;;5.38;3.42;;;;;;;;;;5024206;28;20041;-83
2023/01/03 09:08:29;;;;;;;9.80;5.53;;;;;;;;;;5026652;28;20030;-83
2023/01/03 09:10:55;;;;;;;3.58;2.22;;;;;;;;;;5027334;28;20038;-84
2023/01/03 09:13:20;;;;;;;5.25;2.40;;;;;;;;;;5025740;28;20030;-84
2023/01/03 09:15:46;;;;;;;2.85;1.98;;;;;;;;;;5025998;28;20387;-84
2023/01/03 09:18:11;;;;;;;6.03;2.80;;;;;;;;;;5026834;28;20088;-84
2023/01/03 09:20:37;;;;;;;3.92;2.58;;;;;;;;;;5028706;28;20094;-84
2023/01/03 09:23:02;;;;;;;5.43;2.20;;;;;;;;;;5028750;28;20041;-84
2023/01/03 09:25:28;;;;;;;2.25;1.75;;;;;;;;;;5027281;28;20038;-84
2023/01/03 09:27:53;;;;;;;3.50;2.10;;;;;;;;;;5026579;28;20038;-84
2023/01/03 09:30:19;;;;;;;3.83;2.08;;;;;;;;;;5028805;28;20058;-83
2023/01/03 09:32:45;;;;;;;3.00;1.88;;;;;;;;;;5027825;28;20064;-84
2023/01/03 09:35:10;;;;;;;4.40;2.05;;;;;;;;;;5011087;28;20038;-84
2023/01/03 09:37:36;;;;;;;3.70;1.98;;;;;;;;;;5030476;28;20033;-85
2023/01/03 09:40:03;;;;;;;3.95;1.88;;;;;;;;;;5043056;28;20048;-84
2023/01/03 09:45:16;;;;;;;2.72;1.80;;;;;;;;;;5039006;28;20072;-83
2023/01/03 09:47:43;;;;;;;3.17;1.80;;;;;;;;;;5040284;28;20124;-85
2023/01/03 09:50:32;;;;;;;3.08;2.00;;;;;;;;;;5042583;28;20030;-84
2023/01/03 10:04:32;;;;;;;4.25;2.70;;;;;;;;;;5044926;28;20250;-85
2023/01/03 10:07:04;;;;;;;3.67;2.30;;;;;;;;;;5017895;28;20030;-84
2023/01/03 10:10:03;;;;;;;5.95;2.65;;;;;;;;;;5033644;28;20037;-84
2023/01/03 10:12:55;;;;;;;5.53;2.78;;;;;;;;;;5032616;28;20086;-83
2023/01/03 10:15:42;;;;;;;5.53;2.63;;;;;;;;;;5002394;28;20048;-85
2023/01/03 10:18:13;;;;;;;4.55;3.10;;;;;;;;;;5041586;28;20520;-84
2023/01/03 10:20:46;;;;;;;5.28;2.70;;;;;;;;;;5041023;28;20055;-86
2023/01/03 10:23:12;;;;;;;5.00;3.08;;;;;;;;;;5044170;28;20036;-84
2023/01/03 10:25:40;;;;;;;4.25;3.10;;;;;;;;;;5043994;28;20417;-86
2023/01/03 10:28:10;;;;;;;4.60;3.00;;;;;;;;;;5046334;28;20525;-86
2023/01/03 10:31:13;;;;;;;4.32;3.00;;;;;;;;;;5045851;28;20033;-86
2023/01/03 10:33:47;;;;;;;3.95;3.15;;;;;;;;;;5046232;28;20025;-85
2023/01/03 10:36:15;;;;;;;4.20;2.70;;;;;;;;;;5047366;28;20474;-84
2023/01/03 10:38:43;;;;;;;4.25;2.80;;;;;;;;;;5048684;28;20058;-85
2023/01/03 10:41:51;;;;;;;5.00;3.45;;;;;;;;;;5047526;28;20033;-84
2023/01/03 10:44:27;;;;;;;5.43;3.30;;;;;;;;;;5046502;28;20063;-85
2023/01/03 10:46:54;;;;;;;4.20;3.00;;;;;;;;;;5045902;28;20056;-85
2023/01/03 10:49:22;;;;;;;6.32;3.08;;;;;;;;;;5044819;28;20029;-84
2023/01/03 10:52:13;;;;;;;7.55;3.42;;;;;;;;;;5031018;28;20037;-85
2023/01/03 10:54:53;;;;;;;5.07;3.58;;;;;;;;;;5045949;28;20485;-86
2023/01/03 10:57:45;;;;;;;7.00;3.20;;;;;;;;;;5048437;28;20029;-84
2023/01/03 11:00:30;;;;;;;5.13;3.40;;;;;;;;;;5046995;28;20076;-84
2023/01/03 11:03:08;;;;;;;5.38;3.60;;;;;;;;;;5032176;28;20592;-83
2023/01/03 11:05:35;;;;;;;5.00;3.28;;;;;;;;;;5032905;28;20044;-84
2023/01/03 11:08:03;;;;;;;5.03;3.53;;;;;;;;;;5035476;28;20037;-86
2023/01/03 11:11:10;;;;;;;8.88;3.85;;;;;;;;;;5033528;28;20042;-86
2023/01/03 11:13:38;;;;;;;5.00;3.20;;;;;;;;;;5045096;28;20030;-84
2023/01/03 11:16:15;;;;;;;4.80;3.28;;;;;;;;;;5044901;28;20033;-86
2023/01/03 11:18:42;;;;;;;5.15;3.17;;;;;;;;;;5044676;28;20029;-85
2023/01/03 11:21:17;;;;;;;5.38;2.90;;;;;;;;;;5046652;28;20041;-85
2023/01/03 11:23:51;;;;;;;4.32;2.80;;;;;;;;;;5045580;28;20029;-84
2023/01/03 11:26:32;;;;;;;4.95;2.50;;;;;;;;;;5045585;28;20029;-84
2023/01/03 11:29:12;;;;;;;5.40;2.60;;;;;;;;;;5047541;28;20053;-85
2023/01/03 11:31:41;;;;;;;4.50;2.55;;;;;;;;;;5042856;28;20029;-85
2023/01/03 11:34:56;;;;;;;3.40;2.40;;;;;;;;;;5043915;28;20034;-85
2023/01/03 11:37:27;;;;;;;4.10;2.70;;;;;;;;;;4970105;28;20046;-84
2023/01/03 11:40:21;;;;;;;4.13;2.42;;;;;;;;;;5047560;28;20087;-85
2023/01/03 11:42:50;;;;;;;4.20;2.53;;;;;;;;;;5044554;28;20034;-84
2023/01/03 11:45:30;;;;;;;4.32;2.60;;;;;;;;;;5025398;28;20038;-84
2023/01/03 11:48:23;;;;;;;4.38;2.50;;;;;;;;;;5025517;28;20029;-86
2023/01/03 11:50:54;;;;;;;6.65;2.70;;;;;;;;;;5026399;28;20037;-83
2023/01/03 11:53:36;;;;;;;4.65;2.78;;;;;;;;;;5043150;28;20033;-85
2023/01/03 11:56:31;;;;;;;4.63;2.53;;;;;;;;;;5024276;28;20105;-85
2023/01/03 11:59:02;;;;;;;4.78;2.55;;;;;;;;;;5014348;28;20309;-84
2023/01/03 12:01:47;;;;;;;3.95;2.50;;;;;;;;;;5045773;28;20037;-84
2023/01/03 12:04:22;;;;;;;4.88;2.50;;;;;;;;;;5042228;28;20048;-84
2023/01/03 12:07:11;;;;;;;2.92;2.28;;;;;;;;;;5026217;28;20104;-84
2023/01/03 12:09:46;;;;;;;4.85;2.70;;;;;;;;;;5026613;28;20037;-85
2023/01/03 12:12:24;;;;;;;4.30;2.35;;;;;;;;;;5026519;28;20057;-85
2023/01/03 12:14:55;;;;;;;4.65;2.35;;;;;;;;;;5042600;28;20034;-85
2023/01/03 12:17:36;;;;;;;6.15;3.50;;;;;;;;;;5037904;28;20053;-85
2023/01/03 12:20:18;;;;;;;7.63;2.60;;;;;;;;;;5040691;28;20101;-85
2023/01/03 12:22:50;;;;;;;4.55;2.70;;;;;;;;;;5025358;28;20119;-84
2023/01/03 12:25:28;;;;;;;4.88;2.80;;;;;;;;;;5042491;28;20095;-85
2023/01/03 12:28:09;;;;;;;5.60;2.92;;;;;;;;;;5043760;28;20094;-86
2023/01/03 12:30:59;;;;;;;3.90;2.67;;;;;;;;;;5041062;28;20037;-85
2023/01/03 12:33:30;;;;;;;3.80;2.40;;;;;;;;;;5026102;28;20033;-84
2023/01/03 12:36:09;;;;;;;3.75;2.30;;;;;;;;;;5041542;28;20060;-85
2023/01/03 12:38:43;;;;;;;3.80;2.30;;;;;;;;;;5025408;28;20087;-86
2023/01/03 12:41:32;;;;;;;4.22;2.60;;;;;;;;;;5042695;28;20044;-84
2023/01/03 12:44:06;;;;;;;3.20;1.90;;;;;;;;;;5044435;28;20113;-84
2023/01/03 12:46:40;;;;;;;3.45;2.25;;;;;;;;;;5047495;28;20041;-85
2023/01/03 12:49:13;;;;;;;3.05;2.45;;;;;;;;;;5029897;28;20064;-86
2023/01/03 12:51:38;;;;;;;3.87;2.60;;;;;;;;;;5045569;28;20048;-84
2023/01/03 12:54:10;;;;;;;2.78;2.05;;;;;;;;;;5045694;28;20287;-85
2023/01/03 12:56:38;;;;;;;3.70;2.28;;;;;;;;;;5043971;28;20034;-84
2023/01/03 12:59:14;;;;;;;4.38;1.92;;;;;;;;;;5045337;28;20048;-83
2023/01/03 13:01:45;;;;;;;2.67;1.40;;;;;;;;;;5038413;28;20026;-86
2023/01/03 13:04:25;;;;;;;3.20;2.22;;;;;;;;;;5041442;28;20125;-85
2023/01/03 13:06:58;;;;;;;3.65;2.45;;;;;;;;;;5040390;28;20152;-87
2023/01/03 13:09:30;;;;;;;3.58;2.30;;;;;;;;;;5041512;28;20033;-84
2023/01/03 13:12:02;;;;;;;3.92;2.33;;;;;;;;;;5025259;28;20037;-84
2023/01/03 13:14:28;;;;;;;3.65;2.38;;;;;;;;;;5042541;28;20034;-85
2023/01/03 13:17:05;;;;;;;5.07;2.60;;;;;;;;;;5042814;28;20033;-85
2023/01/03 13:19:34;;;;;;;5.72;2.42;;;;;;;;;;5045060;28;20048;-85
2023/01/03 13:22:17;;;;;;;4.30;2.20;;;;;;;;;;5026795;28;20045;-85
2023/01/03 13:24:50;;;;;;;3.25;2.30;;;;;;;;;;5042302;28;20053;-84
2023/01/03 13:27:24;;;;;;;3.78;2.40;;;;;;;;;;5041234;28;20048;-85
2023/01/03 13:29:55;;;;;;;5.78;2.70;;;;;;;;;;5043149;28;20116;-85
2023/01/03 13:32:21;;;;;;;6.15;2.83;;;;;;;;;;5040795;28;20041;-84
2023/01/03 13:34:55;;;;;;;3.42;2.97;;;;;;;;;;5042602;28;20044;-85
2023/01/03 13:37:21;;;;;;;5.82;3.10;;;;;;;;;;5041036;28;20033;-84
2023/01/03 13:39:49;;;;;;;5.38;4.03;;;;;;;;;;5045195;28;20076;-85
2023/01/03 13:42:22;;;;;;;15.32;6.38;;;;;;;;;;5044594;28;20057;-85
2023/01/03 13:44:49;;;;;;;12.00;6.20;;;;;;;;;;5040381;28;20120;-84
2023/01/03 13:47:32;;;;;;;22.92;9.05;;;;;;;;;;5041769;28;20037;-85
2023/01/03 13:49:58;;;;;;;13.82;5.80;;;;;;;;;;5025850;28;20037;-84
2023/01/03 13:52:55;;;;;;;9.15;4.53;;;;;;;;;;5042900;28;20051;-85
2023/01/03 13:55:39;;;;;;;9.50;5.82;;;;;;;;;;5043958;28;20033;-85
2023/01/03 13:58:23;;;;;;;;;;;;;;;;;;5045048;28;20501;-84
2023/01/03 14:00:51;;;;;;;7.75;4.50;;;;;;;;;;5045869;28;19916;-84
2023/01/03 14:03:42;;;;;;;5.05;3.30;;;;;;;;;;5044445;28;20030;-83
2023/01/03 14:06:31;;;;;;;4.90;3.60;;;;;;;;;;5014518;28;20057;-84
2023/01/03 14:09:21;;;;;;;7.75;4.90;;;;;;;;;;5047699;28;20037;-87
2023/01/03 14:12:07;;;;;;;13.02;6.80;;;;;;;;;;5047600;28;20029;-87
2023/01/03 14:14:36;;;;;;;9.52;4.97;;;;;;;;;;5047146;28;20441;-87
2023/01/03 14:17:02;;;;;;;6.65;4.72;;;;;;;;;;5048938;28;20460;-87
2023/01/03 14:19:31;;;;;;;9.88;5.97;;;;;;;;;;5048206;28;20034;-85
2023/01/03 14:22:11;;;;;;;9.65;5.32;;;;;;;;;;5044884;28;20057;-85
2023/01/03 14:24:50;;;;;;;18.42;10.23;;;;;;;;;;5029851;28;20038;-85
2023/01/03 14:27:18;;;;;;;25.63;12.57;;;;;;;;;;5043537;28;20041;-85
2023/01/03 14:29:54;;;;;;;6.55;3.97;;;;;;;;;;5027812;28;20065;-86
2023/01/03 14:32:28;;;;;;;8.63;4.00;;;;;;;;;;5042641;28;20108;-86
2023/01/03 14:34:54;;;;;;;7.63;4.90;;;;;;;;;;5043243;28;20119;-86
2023/01/03 14:37:23;;;;;;;8.80;4.75;;;;;;;;;;5045584;28;20038;-86
2023/01/03 14:39:55;;;;;;;14.55;7.13;;;;;;;;;;5026392;28;20068;-85
2023/01/03 14:42:21;;;;;;;38.08;15.27;;;;;;;;;;5027049;28;20128;-85
2023/01/03 14:45:07;;;;;;;44.45;19.42;;;;;;;;;;5043823;28;20474;-85
2023/01/03 14:47:41;;;;;;;28.48;14.82;;;;;;;;;;5043544;28;20034;-85
2023/01/03 14:50:28;;;;;;;22.42;11.43;;;;;;;;;;5046102;28;20460;-86
2023/01/03 14:52:56;;;;;;;23.58;10.85;;;;;;;;;;5025706;28;20037;-86
2023/01/03 14:55:29;;;;;;;18.27;10.27;;;;;;;;;;5043740;28;20033;-86
2023/01/03 14:57:56;;;;;;;15.50;8.57;;;;;;;;;;5026626;28;20033;-85
2023/01/03 15:00:30;;;;;;;10.63;6.55;;;;;;;;;;5042527;28;20125;-85
2023/01/03 15:02:56;;;;;;;12.10;7.13;;;;;;;;;;5045058;28;20033;-84
2023/01/03 15:05:28;;;;;;;12.48;6.85;;;;;;;;;;5041208;28;20475;-84
2023/01/03 15:07:54;;;;;;;10.93;6.30;;;;;;;;;;5043475;28;20017;-85
2023/01/03 15:10:32;;;;;;;8.38;5.35;;;;;;;;;;5043338;28;20041;-85
2023/01/03 15:12:58;;;;;;;9.45;5.47;;;;;;;;;;5024831;28;20037;-85
2023/01/03 15:15:37;;;;;;;14.15;9.00;;;;;;;;;;5036976;28;20041;-84
2023/01/03 15:18:05;;;;;;;7.95;4.82;;;;;;;;;;5023878;28;20053;-85
2023/01/03 15:20:37;;;;;;;7.07;4.63;;;;;;;;;;5041985;28;20100;-86
2023/01/03 15:23:03;;;;;;;6.38;4.70;;;;;;;;;;5020312;28;20037;-84
2023/01/03 15:25:40;;;;;;;7.72;4.40;;;;;;;;;;5038354;28;20037;-84
2023/01/03 15:28:29;;;;;;;7.22;4.60;;;;;;;;;;5039366;28;20037;-85
2023/01/03 15:31:13;;;;;;;7.50;4.80;;;;;;;;;;5040551;28;20041;-87
2023/01/03 15:33:39;;;;;;;11.43;6.55;;;;;;;;;;5037608;28;20040;-85
2023/01/03 15:36:11;;;;;;;24.63;9.90;;;;;;;;;;5022068;28;20410;-85
2023/01/03 15:38:43;;;;;;;9.40;5.57;;;;;;;;;;5039841;28;20076;-84
2023/01/03 15:43:18;;;;;;;8.45;5.10;;;;;;;;;;5039835;28;20033;-85
2023/01/03 15:44:09;;;;;;;7.40;4.93;;;;;;;;;;5038950;28;20040;-85
2023/01/03 15:46:35;;;;;;;6.57;4.95;;;;;;;;;;5023093;28;20029;-85
2023/01/03 15:49:01;;;;;;;6.00;4.50;;;;;;;;;;5039144;28;20056;-85
2023/01/03 15:51:27;;;;;;;7.43;5.30;;;;;;;;;;5037098;28;20040;-84
2023/01/03 15:53:53;;;;;;;7.50;4.93;;;;;;;;;;5037888;28;20033;-87
2023/01/03 15:56:25;;;;;;;7.25;4.70;;;;;;;;;;5035521;28;20099;-86
2023/01/03 15:58:54;;;;;;;7.45;5.20;;;;;;;;;;5036280;28;20160;-86
2023/01/03 16:01:21;;;;;;;12.80;7.57;;;;;;;;;;5036876;28;20040;-87
2023/01/03 16:03:48;;;;;;;9.85;6.93;;;;;;;;;;5037794;28;20041;-86
2023/01/03 16:06:15;;;;;;;13.55;7.70;;;;;;;;;;5038595;28;20041;-85
2023/01/03 16:08:41;;;;;;;12.38;7.95;;;;;;;;;;5020649;28;20048;-86
2023/01/03 16:11:25;;;;;;;11.40;7.68;;;;;;;;;;5020885;28;20593;-84